KSFO/SFO METAR and TAF weather

Enter ICAO airport designator
Station Type Date Time Source
KSFO METAR 2022/01/23 11:56 UTC NOAA

KSFO 231156Z 14004KT 10SM CLR 08/05 A3021 RMK AO2 SLP230 T00830050 10117 20072 51008


Station Type Date Time Source
KSFO Decoded METAR 2022/01/23 11:56 UTC NOAA

SAN FRANCISCO INTERNATIONAL AIRPORT , CA, United States (KSFO) 37-37N 122-22W 26M
Jan 23, 2022 - 06:56 AM EST / 2022.01.23 1156 UTC
Wind: from the SE (140 degrees) at 5 MPH (4 KT):0
Visibility: 10 mile(s):0
Sky conditions: clear
Temperature: 46.9 F (8.3 C)
Dew Point: 41.0 F (5.0 C)
Relative Humidity: 79%
Pressure (altimeter): 30.21 in. Hg (1023 hPa)
Pressure tendency: 0.02 inches (0.8 hPa) higher than three hours ago
ob: KSFO 231156Z 14004KT 10SM CLR 08/05 A3021 RMK AO2 SLP230 T00830050 10117 20072 51008
cycle: 12

Station Type Date Time Source
KSFO TAF 2022/01/23 12:33 UTC NOAA

TAF KSFO 231131Z 2312/2418 VRB03KT P6SM SKC
FM231500 09005KT P6SM SKC
FM240100 30008KT P6SM SKC
FM240600 27003KT P6SM SKC
FM241500 VRB03KT P6SM SKC

Example: see airport list